M I D A S
Marine Information and Data Acquisition System
Tripno 1638 of the Zeeleeuw from 2009-02-03 07:50:40 to 2009-02-03 15:48:55
Back to CruiseResearch ActivitiesStationsMapUnderway DataData graphs

EquipmentUnitsComment
TimeDGPSUTC
LatitudeDGPSDM.mWGS84
LongitudeDGPSDM.mWGS84
TemperatureSBE03/SBE38deg celciusITS90
ConductivitySBE21S/mITS90
SalinitySBE21 Practical Salinity Units
ChlorophylAChelsea fluorimeterg/lCalibrated in Aceton
Missing or incorrect values are displayed as -999
Sea surface data collected by the RV Zeeleeuw from 2009-02-03 07:49:35 to 2009-02-03 16:00:02
Time Latitude Longitude Temperature Conductivity Salinity ChlorophylA
2009-02-03 07:50:41 51°13.675 2°55.913 -999 0.094384 0.544979 -0.7568
2009-02-03 07:51:41 51°13.696 2°55.829 -999 0.094281 0.544412 -0.7568
2009-02-03 07:52:41 51°13.704 2°55.76 -999 0.094281 0.544454 -0.7568
2009-02-03 07:53:41 51°13.704 2°55.764 -999 0.094281 0.544526 -0.7568
2009-02-03 07:54:41 51°13.729 2°55.748 -999 0.094281 0.544598 -0.721976
2009-02-03 07:55:41 51°13.824 2°55.649 -999 0.094281 0.544608 -0.7568
2009-02-03 07:56:41 51°13.944 2°55.547 -999 0.094281 0.54466 -0.7568
2009-02-03 07:57:41 51°14.071 2°55.452 -999 1.348004 10.232648 1.437116
2009-02-03 07:58:41 51°14.198 2°55.338 -999 2.812727 29.753871 4.04892
2009-02-03 07:59:41 51°14.312 2°55.168 -999 2.74094 29.479791 3.526559
2009-02-03 08:00:41 51°14.423 2°54.964 -999 2.771872 30.020698 3.631031
2009-02-03 08:01:40 51°14.572 2°54.796 -999 2.880192 31.268639 4.362336
2009-02-03 08:02:39 51°14.744 2°54.638 -999 2.943208 31.96188 4.431984
2009-02-03 08:03:39 51°14.925 2°54.48 -999 2.965872 32.26249 4.04892
2009-02-03 08:04:38 51°15.105 2°54.326 -999 2.998886 32.631508 3.735503
2009-02-03 08:05:37 51°15.28 2°54.175 -999 3.035834 32.960114 3.456911
2009-02-03 08:06:37 51°15.459 2°54.023 -999 2.998368 32.661317 2.795254
2009-02-03 08:07:37 51°15.642 2°53.878 -999 2.981292 32.503686 2.655957
2009-02-03 08:08:37 51°15.822 2°53.718 -999 2.974876 32.442351 3.387263
2009-02-03 08:09:37 51°16.003 2°53.559 -999 2.979016 32.491235 3.143494
2009-02-03 08:10:37 51°16.188 2°53.417 -999 2.971151 32.435357 2.795254
2009-02-03 08:11:37 51°16.372 2°53.276 -999 2.962562 32.383616 2.621133
2009-02-03 08:12:37 51°16.556 2°53.129 -999 2.957594 32.320652 2.864902
2009-02-03 08:13:37 51°16.743 2°52.982 -999 2.963597 32.385129 2.864902
2009-02-03 08:14:37 51°16.927 2°52.834 -999 2.968047 32.433855 2.93455
2009-02-03 08:15:37 51°17.113 2°52.684 -999 2.979637 32.54875 2.725606
2009-02-03 08:16:37 51°17.298 2°52.542 -999 2.991125 32.656274 2.655957
2009-02-03 08:17:37 51°17.501 2°52.473 -999 2.989986 32.622469 2.93455
2009-02-03 08:18:37 51°17.709 2°52.446 -999 2.996402 32.686784 2.76043
2009-02-03 08:19:37 51°17.917 2°52.43 -999 3.008097 32.784503 2.830078
2009-02-03 08:20:37 51°18.124 2°52.404 -999 3.016377 32.842951 2.969374
2009-02-03 08:21:37 51°18.332 2°52.382 -999 3.016894 32.832076 3.004198
2009-02-03 08:22:37 51°18.541 2°52.377 -999 3.01679 32.827814 2.969374
2009-02-03 08:23:37 51°18.751 2°52.403 -999 3.019171 32.835334 3.073846
2009-02-03 08:24:37 51°18.956 2°52.452 -999 3.01679 32.792665 3.10867
2009-02-03 08:25:37 51°19.161 2°52.5 -999 3.000852 32.646154 3.004198
2009-02-03 08:26:37 51°19.362 2°52.582 -999 2.994953 32.586214 2.969374
2009-02-03 08:27:37 51°19.56 2°52.689 -999 2.99102 32.5509 2.76043
2009-02-03 08:28:37 51°19.76 2°52.788 -999 2.988847 32.506826 2.76043
2009-02-03 08:29:37 51°19.963 2°52.886 -999 2.984914 32.462549 2.725606
2009-02-03 08:30:37 51°20.166 2°52.981 -999 2.981499 32.425485 2.690782
2009-02-03 08:31:37 51°20.374 2°53.069 -999 2.978083 32.386434 2.586309
2009-02-03 08:32:37 51°20.582 2°53.166 -999 2.979636 32.402108 2.551485
2009-02-03 08:33:37 51°20.792 2°53.262 -999 2.981499 32.418531 2.481837
2009-02-03 08:34:37 51°21.001 2°53.361 -999 2.987294 32.465292 2.481837
2009-02-03 08:35:37 51°21.204 2°53.462 -999 3.009234 32.627043 2.412189
2009-02-03 08:36:37 51°21.404 2°53.562 -999 3.039558 32.84842 2.307717
2009-02-03 08:37:37 51°21.603 2°53.667 -999 3.049494 32.921189 2.133597
2009-02-03 08:38:37 51°21.788 2°53.818 -999 3.054048 32.955577 2.063949
2009-02-03 08:39:37 51°21.988 2°53.891 -999 3.057257 32.979878 2.063949
2009-02-03 08:40:37 51°22.197 2°53.871 -999 3.060569 33.003401 2.098773
2009-02-03 08:41:37 51°22.406 2°53.854 -999 3.05912 32.989114 2.098773
2009-02-03 08:42:37 51°22.618 2°53.849 -999 3.058706 32.977185 2.063949
2009-02-03 08:43:37 51°22.833 2°53.864 -999 3.06119 32.997817 2.029124
2009-02-03 08:44:38 51°23.051 2°53.894 -999 3.066986 33.033939 2.307717
2009-02-03 08:45:38 51°23.265 2°53.918 -999 3.078062 33.110866 2.342541
2009-02-03 08:46:37 51°23.475 2°53.941 -999 3.085514 33.160539 2.307717
2009-02-03 08:47:37 51°23.687 2°53.972 -999 3.091311 33.198451 2.412189
2009-02-03 08:48:37 51°23.899 2°54.011 -999 3.095658 33.234104 2.377365
2009-02-03 08:49:37 51°24.11 2°54.042 -999 3.099488 33.262587 2.342541
2009-02-03 08:50:37 51°24.321 2°54.076 -999 3.105078 33.305933 2.307717
2009-02-03 08:51:37 51°24.532 2°54.114 -999 3.10632 33.312667 2.342541
2009-02-03 08:52:37 51°24.743 2°54.141 -999 3.106838 33.319812 2.272893
2009-02-03 08:53:38 51°24.958 2°54.166 -999 3.106734 33.318583 2.342541
2009-02-03 08:54:38 51°25.171 2°54.204 -999 3.106113 33.314215 2.307717
2009-02-03 08:55:37 51°25.379 2°54.236 -999 3.108908 33.344387 2.168421
2009-02-03 08:56:37 51°25.588 2°54.276 -999 3.116051 33.39807 2.307717
2009-02-03 08:57:37 51°25.799 2°54.307 -999 3.114084 33.38376 2.203245
2009-02-03 08:58:37 51°26.012 2°54.344 -999 3.112945 33.379273 2.098773
2009-02-03 08:59:37 51°26.223 2°54.379 -999 3.114394 33.394467 2.063949
2009-02-03 09:00:37 51°26.434 2°54.411 -999 3.118224 33.420851 2.098773
2009-02-03 09:01:37 51°26.644 2°54.44 -999 3.12309 33.457483 2.272893
2009-02-03 09:02:37 51°26.856 2°54.471 -999 3.125264 33.47523 2.342541
2009-02-03 09:03:37 51°27.071 2°54.499 -999 3.12516 33.474002 2.307717
2009-02-03 09:04:37 51°27.285 2°54.533 -999 3.128162 33.495534 2.272893
2009-02-03 09:05:37 51°27.502 2°54.559 -999 3.132924 33.524847 2.342541
2009-02-03 09:06:37 51°27.719 2°54.582 -999 3.136858 33.552357 2.377365
2009-02-03 09:07:37 51°27.935 2°54.595 -999 3.145864 33.61375 2.447013
2009-02-03 09:08:37 51°28.145 2°54.641 -999 3.155699 33.679791 2.447013
2009-02-03 09:09:37 51°28.355 2°54.692 -999 3.166051 33.745771 2.551485
2009-02-03 09:10:37 51°28.568 2°54.74 -999 3.168743 33.762459 2.586309
2009-02-03 09:11:37 51°28.781 2°54.791 -999 3.170192 33.774535 2.516661
2009-02-03 09:12:37 51°28.99 2°54.838 -999 3.173816 33.79918 2.481837
2009-02-03 09:13:37 51°29.198 2°54.894 -999 3.177336 33.815544 2.551485
2009-02-03 09:14:37 51°29.407 2°54.951 -999 3.177957 33.816833 2.516661
2009-02-03 09:15:37 51°29.616 2°55.002 -999 3.179303 33.824652 2.481837
2009-02-03 09:16:38 51°29.828 2°55.054 -999 3.180856 33.833904 2.516661
2009-02-03 09:17:37 51°30.034 2°55.098 -999 3.181477 33.837201 2.412189
2009-02-03 09:18:37 51°30.245 2°55.153 -999 3.181684 33.838635 2.412189
2009-02-03 09:19:37 51°30.455 2°55.202 -999 3.181166 33.824494 2.307717
2009-02-03 09:20:37 51°30.663 2°55.269 -999 3.184997 33.859562 2.272893
2009-02-03 09:21:37 51°30.868 2°55.364 -999 3.188206 33.878249 2.238069
2009-02-03 09:22:37 51°31.072 2°55.465 -999 3.195868 33.926171 2.307717
2009-02-03 09:23:38 51°31.281 2°55.564 -999 3.204357 33.975698 2.307717
2009-02-03 09:24:37 51°31.485 2°55.647 -999 3.210052 34.0094 2.238069
2009-02-03 09:25:37 51°31.613 2°55.705 -999 3.213986 34.028436 2.307717
2009-02-03 09:26:37 51°31.711 2°55.743 -999 3.215021 34.035559 2.307717
2009-02-03 09:27:37 51°31.804 2°55.774 -999 3.215643 34.038826 2.203245
2009-02-03 09:28:37 51°31.884 2°55.75 -999 3.217506 34.04963 2.063949
2009-02-03 09:29:37 51°31.944 2°55.71 -999 3.219784 34.062271 1.959476
2009-02-03 09:30:37 51°31.995 2°55.687 -999 3.222579 34.077957 1.959476
2009-02-03 09:31:37 51°32.045 2°55.706 -999 3.224236 34.087321 2.098773
2009-02-03 09:32:37 51°32.071 2°55.763 -999 3.226514 34.099941 2.307717
2009-02-03 09:33:37 51°32.084 2°55.794 -999 3.22786 34.107668 2.272893
2009-02-03 09:34:38 51°32.096 2°55.817 -999 3.228274 34.109504 2.307717
2009-02-03 09:35:37 51°32.108 2°55.835 -999 3.228895 34.11276 2.168421
2009-02-03 09:36:37 51°32.122 2°55.849 -999 3.229206 34.114388 2.098773
2009-02-03 09:37:37 51°32.131 2°55.867 -999 3.228999 34.112968 2.098773
2009-02-03 09:38:37 51°32.104 2°55.878 -999 3.22962 34.112204 2.238069
2009-02-03 09:39:38 51°32.094 2°55.823 -999 3.228688 34.101294 2.516661
2009-02-03 09:40:37 51°32.11 2°55.797 -999 3.228792 34.107528 2.481837
2009-02-03 09:41:37 51°32.13 2°55.787 -999 3.228999 34.111963 2.412189
2009-02-03 09:42:37 51°32.149 2°55.781 -999 3.228895 34.111755 2.447013
2009-02-03 09:43:38 51°32.168 2°55.779 -999 3.228999 34.112968 2.377365
2009-02-03 09:44:38 51°32.187 2°55.78 -999 3.228895 34.108741 2.272893
2009-02-03 09:45:37 51°32.204 2°55.781 -999 3.229309 34.111581 2.098773
2009-02-03 09:46:37 51°32.222 2°55.783 -999 3.228999 34.109953 1.924652
2009-02-03 09:47:37 51°32.242 2°55.78 -999 3.228792 34.111548 1.889828
2009-02-03 09:48:37 51°32.266 2°55.74 -999 3.228688 34.11134 1.924652
2009-02-03 09:49:37 51°32.285 2°55.7 -999 3.229309 34.114596 2.029124
2009-02-03 09:50:38 51°32.301 2°55.673 -999 3.229517 34.115011 2.133597
2009-02-03 09:51:37 51°32.317 2°55.655 -999 3.229827 34.115634 2.133597
2009-02-03 09:52:38 51°32.334 2°55.644 -999 3.230034 34.118058 2.063949
2009-02-03 09:53:37 51°32.352 2°55.637 -999 3.229827 34.116639 2.029124
2009-02-03 09:54:37 51°32.369 2°55.631 -999 3.230241 34.119478 1.959476
2009-02-03 09:55:38 51°32.386 2°55.622 -999 3.230759 34.121521 1.959476
2009-02-03 09:56:37 51°32.397 2°55.574 -999 3.230862 34.119719 1.889828
2009-02-03 09:57:38 51°32.386 2°55.469 -999 3.231691 34.126401 2.203245
2009-02-03 09:58:37 51°32.375 2°55.401 -999 3.231794 34.125604 1.959476
2009-02-03 09:59:38 51°32.372 2°55.362 -999 3.231898 34.127821 1.959476
2009-02-03 10:00:37 51°32.375 2°55.338 -999 3.231794 34.1246 1.959476
2009-02-03 10:01:38 51°32.385 2°55.321 -999 3.231587 34.126194 1.959476
2009-02-03 10:02:37 51°32.4 2°55.309 -999 3.232105 34.130245 2.029124
2009-02-03 10:03:37 51°32.417 2°55.302 -999 3.231794 34.123595 1.9943
2009-02-03 10:04:38 51°32.434 2°55.299 -999 3.232105 34.12924 1.924652
2009-02-03 10:05:37 51°32.452 2°55.3 -999 3.232208 34.126434 1.924652
2009-02-03 10:06:38 51°32.469 2°55.301 -999 3.232623 34.128267 1.889828
2009-02-03 10:07:37 51°32.485 2°55.303 -999 3.232726 34.129479 1.750532
2009-02-03 10:08:38 51°32.502 2°55.307 -999 3.232519 34.130069 1.64606
2009-02-03 10:09:37 51°32.518 2°55.309 -999 3.233037 34.130101 1.611236
2009-02-03 10:10:38 51°32.54 2°55.273 -999 3.232933 34.131903 1.64606
2009-02-03 10:11:37 51°32.526 2°55.197 -999 3.23314 34.131313 1.959476
2009-02-03 10:12:37 51°32.484 2°55.098 -999 3.234383 34.138821 2.098773
2009-02-03 10:13:38 51°32.444 2°55.002 -999 3.235832 34.149755 2.203245
2009-02-03 10:14:37 51°32.423 2°54.95 -999 3.236661 34.152413 2.168421
2009-02-03 10:15:38 51°32.41 2°54.919 -999 3.237593 34.159296 2.029124
2009-02-03 10:16:37 51°32.405 2°54.899 -999 3.238007 34.158113 1.959476
2009-02-03 10:17:38 51°32.405 2°54.886 -999 3.238939 34.167003 1.924652
2009-02-03 10:18:37 51°32.41 2°54.877 -999 3.238628 34.161361 1.889828
2009-02-03 10:19:38 51°32.423 2°54.871 -999 3.23956 34.172259 1.9943
2009-02-03 10:20:38 51°32.437 2°54.869 -999 3.239974 34.173084 1.889828
2009-02-03 10:21:37 51°32.453 2°54.87 -999 3.23987 34.16886 1.889828
2009-02-03 10:22:38 51°32.467 2°54.87 -999 3.240595 34.172313 1.959476
2009-02-03 10:23:38 51°32.48 2°54.871 -999 3.241009 34.178159 1.889828
2009-02-03 10:24:38 51°32.493 2°54.873 -999 3.240802 34.174734 1.785356
2009-02-03 10:25:37 51°32.505 2°54.877 -999 3.241217 34.179576 1.680884
2009-02-03 10:26:38 51°32.517 2°54.882 -999 3.240906 34.172931 1.64606
2009-02-03 10:27:38 51°32.528 2°54.887 -999 3.241009 34.177155 1.576412
2009-02-03 10:28:38 51°32.539 2°54.891 -999 3.240492 34.170098 1.541588
2009-02-03 10:29:38 51°32.55 2°54.896 -999 3.240802 34.176743 1.47194
2009-02-03 10:30:37 51°32.561 2°54.899 -999 3.240181 34.170483 1.506764
2009-02-03 10:31:38 51°32.572 2°54.904 -999 3.239456 34.164017 1.541588
2009-02-03 10:32:37 51°32.59 2°54.887 -999 3.239456 34.164017 1.437116
2009-02-03 10:33:38 51°32.584 2°54.813 -999 3.239663 34.166439 1.64606
2009-02-03 10:34:38 51°32.549 2°54.798 -999 3.239767 34.164637 1.9943
2009-02-03 10:35:38 51°32.535 2°54.823 -999 3.241527 34.178185 2.029124
2009-02-03 10:36:38 51°32.535 2°54.842 -999 3.241631 34.177387 2.063949
2009-02-03 10:37:38 51°32.536 2°54.855 -999 3.242459 34.184057 2.029124
2009-02-03 10:38:38 51°32.536 2°54.867 -999 3.24132 34.171748 1.959476
2009-02-03 10:39:38 51°32.495 2°54.855 -999 3.241941 34.174994 2.029124
2009-02-03 10:40:38 51°32.41 2°54.684 -999 3.23956 34.161211 2.029124
2009-02-03 10:41:38 51°32.305 2°54.464 -999 3.240388 34.1719 2.029124
2009-02-03 10:42:38 51°32.197 2°54.24 -999 3.241009 34.175146 2.029124
2009-02-03 10:43:38 51°32.093 2°54.017 -999 3.242355 34.182847 2.098773
2009-02-03 10:44:38 51°31.992 2°53.8 -999 3.243598 34.189335 2.133597
2009-02-03 10:45:38 51°31.892 2°53.589 -999 3.245358 34.198858 2.133597
2009-02-03 10:46:38 51°31.8 2°53.395 -999 3.24805 34.215245 2.272893
2009-02-03 10:47:38 51°31.723 2°53.191 -999 3.250121 34.226376 2.272893
2009-02-03 10:48:38 51°31.665 2°52.987 -999 3.252192 34.239509 2.342541
2009-02-03 10:49:38 51°31.605 2°52.822 -999 3.253952 34.249011 2.272893
2009-02-03 10:50:38 51°31.536 2°52.752 -999 3.255402 34.257897 2.168421
2009-02-03 10:51:38 51°31.483 2°52.689 -999 3.256334 34.261742 2.168421
2009-02-03 10:52:37 51°31.446 2°52.588 -999 3.256437 34.26295 2.063949
2009-02-03 10:53:38 51°31.391 2°52.534 -999 3.256541 34.264159 2.133597
2009-02-03 10:54:38 51°31.349 2°52.563 -999 3.256644 34.263359 2.133597
2009-02-03 10:55:38 51°31.307 2°52.561 -999 3.255816 34.25771 2.098773
2009-02-03 10:56:38 51°31.283 2°52.561 -999 3.254781 34.252655 2.133597
2009-02-03 10:57:38 51°31.281 2°52.569 -999 3.254056 34.249216 2.029124
2009-02-03 10:58:38 51°31.283 2°52.578 -999 3.25302 34.243155 2.133597
2009-02-03 10:59:38 51°31.288 2°52.587 -999 3.252606 34.240328 2.238069
2009-02-03 11:00:38 51°31.293 2°52.595 -999 3.25271 34.239529 2.238069
2009-02-03 11:01:38 51°31.298 2°52.595 -999 3.252088 34.237297 2.133597
2009-02-03 11:02:38 51°31.303 2°52.594 -999 3.252192 34.236497 2.098773
2009-02-03 11:03:38 51°31.304 2°52.595 -999 3.251674 34.233465 2.029124
2009-02-03 11:04:38 51°31.302 2°52.597 -999 3.251157 34.231437 2.029124
2009-02-03 11:05:38 51°31.3 2°52.6 -999 3.250949 34.22902 2.029124
2009-02-03 11:06:38 51°31.298 2°52.602 -999 3.250949 34.228016 2.029124
2009-02-03 11:07:38 51°31.297 2°52.604 -999 3.250949 34.227012 1.924652
2009-02-03 11:08:38 51°31.298 2°52.605 -999 3.250742 34.226602 1.924652
2009-02-03 11:09:38 51°31.298 2°52.605 -999 3.250639 34.226397 2.029124
2009-02-03 11:10:38 51°31.298 2°52.606 -999 3.250846 34.225803 1.959476
2009-02-03 11:11:38 51°31.297 2°52.606 -999 3.250949 34.226008 2.029124
2009-02-03 11:12:38 51°31.297 2°52.606 -999 3.251053 34.224206 1.959476
2009-02-03 11:13:38 51°31.297 2°52.606 -999 3.250535 34.225188 2.063949
2009-02-03 11:14:38 51°31.297 2°52.607 -999 3.250535 34.226192 2.029124
2009-02-03 11:15:38 51°31.298 2°52.607 -999 3.250432 34.223979 1.959476
2009-02-03 11:16:38 51°31.297 2°52.606 -999 3.250639 34.224389 1.959476
2009-02-03 11:17:38 51°31.298 2°52.606 -999 3.250846 34.226807 1.9943
2009-02-03 11:18:38 51°31.298 2°52.607 -999 3.250949 34.228016 2.029124
2009-02-03 11:19:38 51°31.297 2°52.607 -999 3.25126 34.230638 1.9943
2009-02-03 11:20:37 51°31.296 2°52.608 -999 3.251364 34.229839 1.9943
2009-02-03 11:21:38 51°31.295 2°52.608 -999 3.251674 34.231458 1.959476
2009-02-03 11:22:38 51°31.294 2°52.609 -999 3.251571 34.230249 1.9943
2009-02-03 11:23:38 51°31.293 2°52.609 -999 3.251881 34.228856 1.9943
2009-02-03 11:24:38 51°31.294 2°52.609 -999 3.251674 34.228446 1.9943
2009-02-03 11:25:37 51°31.295 2°52.608 -999 3.251157 34.228426 2.029124
2009-02-03 11:26:38 51°31.296 2°52.608 -999 3.250949 34.226008 2.029124
2009-02-03 11:27:38 51°31.296 2°52.607 -999 3.250535 34.224184 1.959476
2009-02-03 11:28:38 51°31.296 2°52.607 -999 3.250328 34.22277 1.9943
2009-02-03 11:29:37 51°31.296 2°52.607 -999 3.250225 34.221561 1.9943
2009-02-03 11:30:37 51°31.295 2°52.607 -999 3.249914 34.218938 1.924652
2009-02-03 11:31:37 51°31.294 2°52.606 -999 3.249707 34.218528 1.9943
2009-02-03 11:32:38 51°31.294 2°52.606 -999 3.249293 34.216704 2.029124
2009-02-03 11:33:38 51°31.294 2°52.607 -999 3.249603 34.218323 1.959476
2009-02-03 11:34:37 51°31.293 2°52.608 -999 3.249707 34.217524 2.029124
2009-02-03 11:35:38 51°31.294 2°52.608 -999 3.24981 34.219737 1.9943
2009-02-03 11:36:37 51°31.294 2°52.608 -999 3.249914 34.218938 1.9943
2009-02-03 11:37:37 51°31.294 2°52.608 -999 3.249914 34.219942 1.924652
2009-02-03 11:38:37 51°31.293 2°52.607 -999 3.249707 34.218528 2.029124
2009-02-03 11:39:38 51°31.293 2°52.606 -999 3.249914 34.219942 1.959476
2009-02-03 11:40:38 51°31.294 2°52.606 -999 3.249914 34.218938 2.063949
2009-02-03 11:41:37 51°31.294 2°52.605 -999 3.249707 34.219532 2.029124
2009-02-03 11:42:38 51°31.295 2°52.604 -999 3.2495 34.219122 2.098773
2009-02-03 11:43:37 51°31.296 2°52.602 -999 3.249396 34.218916 2.098773
2009-02-03 11:44:38 51°31.296 2°52.602 -999 3.249293 34.216704 2.098773
2009-02-03 11:45:37 51°31.297 2°52.6 -999 3.249189 34.216498 2.063949
2009-02-03 11:46:37 51°31.296 2°52.598 -999 3.249189 34.214491 2.029124
2009-02-03 11:47:37 51°31.294 2°52.593 -999 3.249189 34.214491 1.889828
2009-02-03 11:48:37 51°31.288 2°52.584 -999 3.248982 34.21408 1.959476
2009-02-03 11:49:38 51°31.281 2°52.576 -999 3.248775 34.214674 1.889828
2009-02-03 11:50:37 51°31.276 2°52.575 -999 3.248982 34.212073 1.889828
2009-02-03 11:51:38 51°31.262 2°52.576 -999 3.249293 34.214696 1.889828
2009-02-03 11:52:38 51°31.188 2°52.54 -999 3.249396 34.212894 1.889828
2009-02-03 11:53:38 51°31.105 2°52.375 -999 3.247843 34.20881 1.924652
2009-02-03 11:54:37 51°31.006 2°52.164 -999 3.242977 34.181071 1.9943
2009-02-03 11:55:37 51°30.901 2°51.929 -999 3.239767 34.163633 2.098773
2009-02-03 11:56:37 51°30.795 2°51.664 -999 3.238835 34.158762 2.238069
2009-02-03 11:57:37 51°30.685 2°51.379 -999 3.243494 34.185113 2.203245
2009-02-03 11:58:37 51°30.581 2°51.087 -999 3.245358 34.194842 2.203245
2009-02-03 11:59:37 51°30.473 2°50.796 -999 3.242459 34.184057 2.203245
2009-02-03 12:00:37 51°30.366 2°50.504 -999 3.242252 34.18465 2.063949
2009-02-03 12:01:37 51°30.256 2°50.212 -999 3.24308 34.187301 2.029124
2009-02-03 12:02:37 51°30.144 2°49.924 -999 3.243598 34.191344 1.9943
2009-02-03 12:03:37 51°30.03 2°49.637 -999 3.241217 34.18058 1.82018
2009-02-03 12:04:37 51°29.919 2°49.347 -999 3.23956 34.171254 1.82018
2009-02-03 12:05:37 51°29.83 2°49.038 -999 3.239974 34.176098 1.785356
2009-02-03 12:06:37 51°29.747 2°48.724 -999 3.240699 34.178545 1.82018
2009-02-03 12:07:38 51°29.656 2°48.409 -999 3.240492 34.182152 1.82018
2009-02-03 12:08:38 51°29.57 2°48.097 -999 3.245773 34.217763 2.029124
2009-02-03 12:09:37 51°29.483 2°47.791 -999 3.251467 34.252143 2.098773
2009-02-03 12:10:37 51°29.395 2°47.48 -999 3.255609 34.275382 1.889828
2009-02-03 12:11:37 51°29.306 2°47.168 -999 3.258716 34.296566 1.680884
2009-02-03 12:12:37 51°29.215 2°46.858 -999 3.261822 34.316731 1.64606
2009-02-03 12:13:37 51°29.13 2°46.541 -999 3.265032 34.33407 1.680884
2009-02-03 12:14:37 51°29.066 2°46.212 -999 3.269588 34.361055 1.715708
2009-02-03 12:15:37 51°29.008 2°45.879 -999 3.272591 34.381978 1.785356
2009-02-03 12:16:37 51°28.948 2°45.547 -999 3.279425 34.416344 1.855004
2009-02-03 12:17:37 51°28.888 2°45.216 -999 3.285742 34.443623 2.063949
2009-02-03 12:18:37 51°28.829 2°44.884 -999 3.292369 34.480489 2.203245
2009-02-03 12:19:37 51°28.762 2°44.552 -999 3.304692 34.526183 2.029124
2009-02-03 12:20:37 51°28.692 2°44.225 -999 3.311526 34.555263 1.82018
2009-02-03 12:21:38 51°28.619 2°43.893 -999 3.315979 34.572754 1.785356
2009-02-03 12:22:37 51°28.549 2°43.573 -999 3.319604 34.589651 1.750532
2009-02-03 12:23:37 51°28.477 2°43.247 -999 3.323125 34.609339 1.611236
2009-02-03 12:24:37 51°28.41 2°42.92 -999 3.32706 34.628792 1.611236
2009-02-03 12:25:37 51°28.335 2°42.597 -999 3.330374 34.645054 1.541588
2009-02-03 12:26:37 51°28.25 2°42.279 -999 3.333273 34.662522 1.541588
2009-02-03 12:27:37 51°28.166 2°41.961 -999 3.334413 34.664666 1.541588
2009-02-03 12:28:37 51°28.077 2°41.647 -999 3.335863 34.677395 1.576412
2009-02-03 12:29:37 51°27.986 2°41.334 -999 3.337312 34.683119 1.611236
2009-02-03 12:30:37 51°27.894 2°41.021 -999 3.337623 34.686703 1.64606
2009-02-03 12:31:37 51°27.799 2°40.712 -999 3.342801 34.71341 1.64606
2009-02-03 12:32:37 51°27.707 2°40.399 -999 3.346012 34.723413 1.64606
2009-02-03 12:33:37 51°27.613 2°40.088 -999 3.348704 34.734439 1.82018
2009-02-03 12:34:37 51°27.52 2°39.776 -999 3.349636 34.738177 1.785356
2009-02-03 12:35:37 51°27.43 2°39.462 -999 3.351293 34.74926 1.750532
2009-02-03 12:36:37 51°27.339 2°39.147 -999 3.351915 34.749419 1.680884
2009-02-03 12:37:37 51°27.235 2°38.843 -999 3.353261 34.760918 1.680884
2009-02-03 12:38:37 51°27.131 2°38.539 -999 3.353779 34.760882 1.680884
2009-02-03 12:39:37 51°26.996 2°38.266 -999 3.355332 34.770765 1.64606
2009-02-03 12:40:37 51°26.853 2°38.001 -999 3.357922 34.784564 1.64606
2009-02-03 12:41:37 51°26.71 2°37.737 -999 3.359061 34.775696 1.680884
2009-02-03 12:42:38 51°26.563 2°37.47 -999 3.363928 34.797701 1.680884
2009-02-03 12:43:37 51°26.424 2°37.206 -999 3.366621 34.805681 1.680884
2009-02-03 12:44:38 51°26.283 2°36.932 -999 3.370971 34.828682 1.64606
2009-02-03 12:45:37 51°26.144 2°36.672 -999 3.372317 34.836152 1.611236
2009-02-03 12:46:37 51°26.006 2°36.402 -999 3.372007 34.831591 1.611236
2009-02-03 12:47:37 51°25.865 2°36.136 -999 3.373353 34.83906 1.611236
2009-02-03 12:48:37 51°25.725 2°35.871 -999 3.373767 34.832849 1.680884
2009-02-03 12:49:37 51°25.605 2°35.581 -999 3.377289 34.857275 1.680884
2009-02-03 12:50:37 51°25.506 2°35.272 -999 3.381224 34.858545 1.576412
2009-02-03 12:51:37 51°25.409 2°34.959 -999 3.387335 34.88669 1.506764
2009-02-03 12:52:38 51°25.308 2°34.643 -999 3.393238 34.910436 1.367467
2009-02-03 12:53:38 51°25.209 2°34.332 -999 3.39676 34.90695 1.297819
2009-02-03 12:54:38 51°25.107 2°34.021 -999 3.403699 34.944445 1.297819
2009-02-03 12:55:38 51°25.003 2°33.709 -999 3.404838 34.927682 1.262995
2009-02-03 12:56:37 51°24.906 2°33.399 -999 3.410742 34.960253 1.228171
2009-02-03 12:57:38 51°24.801 2°33.083 -999 3.410949 34.943794 1.228171
2009-02-03 12:58:37 51°24.704 2°32.774 -999 3.415093 34.977082 1.297819
2009-02-03 12:59:38 51°24.604 2°32.454 -999 3.414782 34.959688 1.262995
2009-02-03 13:00:37 51°24.505 2°32.147 -999 3.417164 34.974908 1.262995
2009-02-03 13:01:38 51°24.405 2°31.832 -999 3.41675 34.963272 1.297819
2009-02-03 13:02:38 51°24.307 2°31.521 -999 3.418407 34.986073 1.262995
2009-02-03 13:03:38 51°24.206 2°31.211 -999 3.417475 34.9824 1.262995
2009-02-03 13:04:38 51°24.1 2°30.906 -999 3.413435 34.949319 1.367467
2009-02-03 13:05:37 51°24.002 2°30.6 -999 3.415818 34.984342 1.402292
2009-02-03 13:06:38 51°23.913 2°30.323 -999 3.414782 34.980479 1.402292
2009-02-03 13:07:38 51°23.842 2°30.12 -999 3.414057 34.980153 1.332643
2009-02-03 13:08:38 51°23.798 2°30.002 -999 3.413746 34.979589 1.332643
2009-02-03 13:09:38 51°23.765 2°29.925 -999 3.413125 34.975487 1.262995
2009-02-03 13:10:38 51°23.754 2°29.865 -999 3.412607 34.970582 1.297819
2009-02-03 13:11:38 51°23.748 2°29.815 -999 3.413539 34.981195 1.402292
2009-02-03 13:12:38 51°23.737 2°29.77 -999 3.413539 34.981195 1.402292
2009-02-03 13:13:38 51°23.728 2°29.738 -999 3.413746 34.98058 1.506764
2009-02-03 13:14:38 51°23.722 2°29.713 -999 3.413746 34.981571 1.541588
2009-02-03 13:15:38 51°23.717 2°29.691 -999 3.413746 34.98058 1.506764
2009-02-03 13:16:38 51°23.737 2°29.656 -999 3.41416 34.980341 1.402292
2009-02-03 13:17:38 51°23.759 2°29.684 -999 3.414782 34.98147 1.506764
2009-02-03 13:18:38 51°23.743 2°29.735 -999 3.415507 34.984768 1.437116
2009-02-03 13:19:38 51°23.738 2°29.796 -999 3.415196 34.984204 1.332643
2009-02-03 13:20:38 51°23.747 2°29.835 -999 3.415196 34.985195 1.332643
2009-02-03 13:21:38 51°23.755 2°29.852 -999 3.415093 34.985007 1.297819
2009-02-03 13:22:38 51°23.756 2°29.855 -999 3.415093 34.984016 1.262995
2009-02-03 13:23:38 51°23.752 2°29.854 -999 3.415093 34.984016 1.332643
2009-02-03 13:24:38 51°23.744 2°29.846 -999 3.415196 34.985195 1.262995
2009-02-03 13:25:38 51°23.735 2°29.831 -999 3.4153 34.984392 1.332643
2009-02-03 13:26:38 51°23.725 2°29.816 -999 3.415403 34.98458 1.402292
2009-02-03 13:27:38 51°23.715 2°29.803 -999 3.415714 34.985144 1.367467
2009-02-03 13:28:38 51°23.704 2°29.796 -999 3.415818 34.983351 1.402292
2009-02-03 13:29:38 51°23.691 2°29.796 -999 3.415921 34.98453 1.437116
2009-02-03 13:30:38 51°23.676 2°29.794 -999 3.416335 34.983301 1.402292
2009-02-03 13:31:38 51°23.659 2°29.813 -999 3.415818 34.983351 1.47194
2009-02-03 13:32:38 51°23.668 2°29.843 -999 3.415818 34.984342 1.541588
2009-02-03 13:33:38 51°23.69 2°29.83 -999 3.41561 34.982975 1.506764
2009-02-03 13:34:38 51°23.708 2°29.807 -999 3.41561 34.982975 1.506764
2009-02-03 13:35:38 51°23.724 2°29.802 -999 3.415714 34.983163 1.437116
2009-02-03 13:36:38 51°23.738 2°29.811 -999 3.41561 34.983966 1.402292
2009-02-03 13:37:38 51°23.745 2°29.817 -999 3.415714 34.984154 1.437116
2009-02-03 13:38:38 51°23.748 2°29.821 -999 3.415921 34.982549 1.437116
2009-02-03 13:39:38 51°23.75 2°29.822 -999 3.416025 34.982737 1.402292
2009-02-03 13:40:38 51°23.75 2°29.82 -999 3.416335 34.983301 1.297819
2009-02-03 13:41:38 51°23.75 2°29.815 -999 3.416543 34.983677 1.332643
2009-02-03 13:42:38 51°23.75 2°29.808 -999 3.416439 34.98448 1.262995
2009-02-03 13:43:38 51°23.75 2°29.799 -999 3.416957 34.98344 1.262995
2009-02-03 13:44:38 51°23.746 2°29.786 -999 3.41675 34.984054 1.402292
2009-02-03 13:45:38 51°23.736 2°29.776 -999 3.41706 34.983628 1.437116
2009-02-03 13:46:38 51°23.733 2°29.765 -999 3.416853 34.985232 1.47194
2009-02-03 13:47:38 51°23.748 2°29.767 -999 3.417371 34.985182 1.47194
2009-02-03 13:48:38 51°23.746 2°29.766 -999 3.417268 34.984994 1.64606
2009-02-03 13:49:38 51°23.738 2°29.764 -999 3.417578 34.985558 1.64606
2009-02-03 13:50:38 51°23.725 2°29.782 -999 3.417786 34.984944 1.611236
2009-02-03 13:51:38 51°23.712 2°29.791 -999 3.417786 34.985934 1.611236
2009-02-03 13:52:38 51°23.698 2°29.797 -999 3.417993 34.98631 1.576412
2009-02-03 13:53:38 51°23.686 2°29.821 -999 3.417889 34.986122 1.576412
2009-02-03 13:54:38 51°23.69 2°29.847 -999 3.417786 34.985934 1.64606
2009-02-03 13:55:38 51°23.706 2°29.845 -999 3.417578 34.985558 1.64606
2009-02-03 13:56:38 51°23.727 2°29.822 -999 3.417578 34.985558 1.541588
2009-02-03 13:57:38 51°23.747 2°29.799 -999 3.417993 34.98631 1.506764
2009-02-03 13:58:38 51°23.753 2°29.78 -999 3.4182 34.986687 1.47194
2009-02-03 13:59:38 51°23.751 2°29.762 -999 3.4182 34.987676 1.437116
2009-02-03 14:00:38 51°23.74 2°29.758 -999 3.418407 34.987063 1.541588
2009-02-03 14:01:38 51°23.724 2°29.763 -999 3.418303 34.986875 1.576412
2009-02-03 14:02:38 51°23.703 2°29.766 -999 3.4182 34.988666 1.64606
2009-02-03 14:03:38 51°23.69 2°29.763 -999 3.4182 34.987676 1.506764
2009-02-03 14:04:39 51°23.696 2°29.76 -999 3.418821 34.987815 1.47194
2009-02-03 14:05:38 51°23.718 2°29.752 -999 3.419028 34.99017 1.402292
2009-02-03 14:06:38 51°23.739 2°29.76 -999 3.419339 34.989745 1.402292
2009-02-03 14:07:38 51°23.745 2°29.789 -999 3.420064 34.99106 1.541588
2009-02-03 14:08:38 51°23.741 2°29.812 -999 3.420168 34.990259 1.47194
2009-02-03 14:09:38 51°23.734 2°29.828 -999 3.420479 34.991812 1.402292
2009-02-03 14:10:38 51°23.725 2°29.839 -999 3.420479 34.991812 1.437116
2009-02-03 14:11:38 51°23.714 2°29.844 -999 3.420479 34.992802 1.506764
2009-02-03 14:12:38 51°23.703 2°29.846 -999 3.420479 34.991812 1.541588
2009-02-03 14:13:38 51°23.692 2°29.846 -999 3.420582 34.99299 1.506764
2009-02-03 14:14:38 51°23.683 2°29.846 -999 3.4211 34.991951 1.506764
2009-02-03 14:15:38 51°23.674 2°29.846 -999 3.421411 34.994493 1.541588
2009-02-03 14:16:38 51°23.656 2°29.859 -999 3.4211 34.99294 1.506764
2009-02-03 14:17:38 51°23.584 2°29.98 -999 3.421411 34.992514 1.437116
2009-02-03 14:18:38 51°23.456 2°30.203 -999 3.420996 34.992752 1.785356
2009-02-03 14:19:38 51°23.275 2°30.351 -999 3.420168 34.98828 1.680884
2009-02-03 14:20:38 51°23.074 2°30.435 -999 3.418303 34.987864 1.680884
2009-02-03 14:21:38 51°22.874 2°30.521 -999 3.415818 34.977409 1.680884
2009-02-03 14:22:38 51°22.696 2°30.663 -999 3.404942 34.957628 1.889828
2009-02-03 14:23:38 51°22.587 2°30.925 -999 3.390442 34.903328 1.889828
2009-02-03 14:24:38 51°22.51 2°31.219 -999 3.386403 34.88896 1.889828
2009-02-03 14:25:38 51°22.418 2°31.5 -999 3.382881 34.879511 2.063949
2009-02-03 14:26:38 51°22.31 2°31.772 -999 3.371385 34.848399 2.203245
2009-02-03 14:27:38 51°22.199 2°32.041 -999 3.363825 34.818473 2.307717
2009-02-03 14:28:38 51°22.088 2°32.308 -999 3.360511 34.810347 2.377365
2009-02-03 14:29:38 51°21.975 2°32.577 -999 3.352226 34.778992 2.238069
2009-02-03 14:30:38 51°21.861 2°32.848 -999 3.348187 34.75047 2.238069
2009-02-03 14:31:38 51°21.746 2°33.12 -999 3.348497 34.75405 2.203245
2009-02-03 14:32:38 51°21.629 2°33.393 -999 3.348601 34.757245 2.342541
2009-02-03 14:33:38 51°21.517 2°33.667 -999 3.345598 34.743644 2.272893
2009-02-03 14:34:38 51°21.404 2°33.936 -999 3.332859 34.680763 2.307717
2009-02-03 14:35:38 51°21.289 2°34.203 -999 3.32561 34.651096 2.342541
2009-02-03 14:36:38 51°21.177 2°34.471 -999 3.320432 34.623278 2.412189
2009-02-03 14:37:38 51°21.072 2°34.746 -999 3.315462 34.604846 2.481837
2009-02-03 14:38:38 51°20.962 2°35.014 -999 3.28481 34.441825 2.412189
2009-02-03 14:39:38 51°20.853 2°35.287 -999 3.265239 34.346541 2.412189
2009-02-03 14:40:38 51°20.745 2°35.562 -999 3.256645 34.299541 2.377365
2009-02-03 14:41:38 51°20.635 2°35.836 -999 3.244737 34.230799 2.272893
2009-02-03 14:42:38 51°20.524 2°36.112 -999 3.236454 34.187197 2.238069
2009-02-03 14:43:38 51°20.403 2°36.378 -999 3.235626 34.172465 2.168421
2009-02-03 14:44:38 51°20.284 2°36.645 -999 3.236661 34.170504 2.272893
2009-02-03 14:45:38 51°20.165 2°36.911 -999 3.236454 34.165064 2.412189
2009-02-03 14:46:38 51°20.049 2°37.181 -999 3.232623 34.147364 2.412189
2009-02-03 14:47:38 51°19.932 2°37.448 -999 3.217299 34.060274 2.342541
2009-02-03 14:48:38 51°19.816 2°37.719 -999 3.205082 33.989244 2.272893
2009-02-03 14:49:38 51°19.699 2°37.988 -999 3.1939 33.911075 2.203245
2009-02-03 14:50:38 51°19.582 2°38.259 -999 3.190484 33.886961 2.203245
2009-02-03 14:51:38 51°19.464 2°38.53 -999 3.186653 33.848914 2.238069
2009-02-03 14:52:38 51°19.346 2°38.797 -999 3.17982 33.794585 2.063949
2009-02-03 14:53:38 51°19.23 2°39.066 -999 3.175058 33.754558 2.063949
2009-02-03 14:54:38 51°19.113 2°39.336 -999 3.172469 33.742125 2.168421
2009-02-03 14:55:38 51°18.998 2°39.608 -999 3.171848 33.740825 2.412189
2009-02-03 14:56:38 51°18.941 2°39.915 -999 3.169778 33.716428 2.307717
2009-02-03 14:57:38 51°18.924 2°40.236 -999 3.137892 33.47841 1.889828
2009-02-03 14:58:38 51°18.895 2°40.559 -999 3.133337 33.436591 1.889828
2009-02-03 14:59:38 51°18.856 2°40.879 -999 3.138306 33.483302 2.029124
2009-02-03 15:00:38 51°18.786 2°41.188 -999 3.139031 33.480865 1.924652
2009-02-03 15:01:38 51°18.676 2°41.463 -999 3.139134 33.483087 1.9943
2009-02-03 15:02:38 51°18.546 2°41.717 -999 3.136029 33.445413 1.785356
2009-02-03 15:03:38 51°18.416 2°41.973 -999 3.132612 33.417049 1.750532
2009-02-03 15:04:38 51°18.288 2°42.231 -999 3.10901 33.244692 1.924652
2009-02-03 15:05:38 51°18.162 2°42.488 -999 3.090068 33.098958 1.959476
2009-02-03 15:06:38 51°18.041 2°42.752 -999 3.086341 33.076654 1.924652
2009-02-03 15:07:38 51°17.916 2°43.012 -999 3.085927 33.082683 1.9943
2009-02-03 15:08:38 51°17.775 2°43.253 -999 3.08748 33.107074 2.203245
2009-02-03 15:09:38 51°17.632 2°43.498 -999 3.104042 33.247663 2.830078
2009-02-03 15:10:38 51°17.489 2°43.738 -999 3.092345 33.150845 2.238069
2009-02-03 15:11:38 51°17.344 2°43.976 -999 3.079096 33.048368 2.238069
2009-02-03 15:12:38 51°17.201 2°44.212 -999 3.066882 32.942064 1.924652
2009-02-03 15:13:38 51°17.059 2°44.45 -999 3.053012 32.835738 1.959476
2009-02-03 15:14:38 51°16.917 2°44.685 -999 3.048355 32.807099 2.063949
2009-02-03 15:15:38 51°16.773 2°44.918 -999 3.043387 32.789614 2.063949
2009-02-03 15:16:38 51°16.63 2°45.154 -999 3.048769 32.837841 2.238069
2009-02-03 15:17:38 51°16.487 2°45.39 -999 3.046492 32.82363 2.238069
2009-02-03 15:18:38 51°16.344 2°45.626 -999 3.045975 32.828396 2.481837
2009-02-03 15:19:38 51°16.2 2°45.866 -999 3.044422 32.83077 2.690782
2009-02-03 15:20:38 51°16.065 2°46.121 -999 3.042249 32.83271 2.76043
2009-02-03 15:21:38 51°15.96 2°46.412 -999 3.044837 32.893524 2.655957
2009-02-03 15:22:38 51°15.885 2°46.722 -999 3.049598 32.956415 2.516661
2009-02-03 15:23:38 51°15.846 2°47.052 -999 3.039973 32.888336 2.203245
2009-02-03 15:24:38 51°15.801 2°47.378 -999 3.024862 32.778403 2.063949
2009-02-03 15:25:38 51°15.753 2°47.704 -999 3.010476 32.652889 1.924652
2009-02-03 15:26:38 51°15.698 2°48.028 -999 3.00023 32.56089 1.889828
2009-02-03 15:27:38 51°15.648 2°48.355 -999 2.995676 32.5182 2.029124
2009-02-03 15:28:38 51°15.596 2°48.68 -999 2.991433 32.48617 2.098773
2009-02-03 15:29:38 51°15.574 2°49.016 -999 2.986466 32.426561 1.9943
2009-02-03 15:30:38 51°15.563 2°49.359 -999 2.984189 32.411142 1.9943
2009-02-03 15:31:38 51°15.557 2°49.702 -999 2.981395 32.38752 1.889828
2009-02-03 15:32:38 51°15.549 2°50.047 -999 2.977049 32.381939 2.098773
2009-02-03 15:33:38 51°15.543 2°50.392 -999 2.971771 32.352237 2.203245
2009-02-03 15:34:38 51°15.532 2°50.735 -999 2.969391 32.320635 2.168421
2009-02-03 15:35:38 51°15.522 2°51.077 -999 2.959974 32.248983 2.203245
2009-02-03 15:36:38 51°15.498 2°51.415 -999 2.953868 32.183424 2.168421
2009-02-03 15:37:38 51°15.459 2°51.75 -999 2.954592 32.167427 2.203245
2009-02-03 15:38:38 51°15.415 2°52.086 -999 2.954282 32.181482 2.098773
2009-02-03 15:39:38 51°15.367 2°52.419 -999 2.954075 32.19779 2.238069
2009-02-03 15:40:38 51°15.308 2°52.741 -999 2.935345 32.002907 1.959476
2009-02-03 15:41:38 51°15.226 2°53.046 -999 2.915995 31.822943 1.959476
2009-02-03 15:42:38 51°15.145 2°53.342 -999 2.897473 31.644777 2.063949
2009-02-03 15:43:38 51°15.052 2°53.632 -999 2.884746 31.54401 2.098773
2009-02-03 15:44:38 51°14.937 2°53.898 -999 2.878332 31.517306 2.272893
2009-02-03 15:45:38 51°14.817 2°54.162 -999 2.880505 31.552358 2.377365
2009-02-03 15:46:38 51°14.699 2°54.43 -999 2.885161 31.61452 2.586309
2009-02-03 15:47:38 51°14.572 2°54.69 -999 2.8923 31.656709 2.516661
2009-02-03 15:48:38 51°14.439 2°54.94 -999 2.897991 31.720552 2.551485
2009-02-03 15:49:38 51°14.31 2°55.176 -999 2.899129 31.760842 2.447013
2009-02-03 15:50:39 51°14.186 2°55.353 -999 2.899026 31.757623 2.342541
2009-02-03 15:51:39 51°14.054 2°55.466 -999 2.899026 31.75664 2.551485
2009-02-03 15:52:38 51°13.92 2°55.561 -999 2.899129 31.75494 2.690782
2009-02-03 15:53:37 51°13.797 2°55.657 -999 2.899233 31.74636 -1.244337
2009-02-03 15:55:32 51°13.671 2°55.911 -999 2.900888 31.741803 -1.209513
2009-02-03 15:56:32 51°13.66 2°55.957 -999 2.903682 31.731379 -1.209513
2009-02-03 15:57:32 51°13.661 2°55.959 -999 2.907303 31.71727 -1.209513
2009-02-03 15:58:32 51°13.662 2°55.96 -999 2.911234 31.73039 -1.209513
2009-02-03 15:59:32 51°13.663 2°55.959 -999 2.915063 31.742249 -1.209513